Time;durP1;ratioP1;P1;durP2;ratioP2;P2;SDS_P1;SDS_P2;PMS_P1;PMS_P2;Temp;Humidity;BMP_temperature;BMP_pressure;BME280_temperature;BME280_humidity;BME280_pressure;Samples;Min_cycle;Max_cycle;Signal;HPM_P1;HPM_P2
2021/06/19 00:02:00;;;;;;;9.10;4.40;;;23.10;99.90;;;;;;5090937;28;20581;-74
2021/06/19 00:04:27;;;;;;;11.73;4.70;;;23.10;99.90;;;;;;5091312;28;20463;-74
2021/06/19 00:06:53;;;;;;;8.43;4.07;;;23.00;99.90;;;;;;5090644;28;20469;-74
2021/06/19 00:09:20;;;;;;;7.97;4.07;;;23.00;99.90;;;;;;5091203;28;20465;-74
2021/06/19 00:11:47;;;;;;;7.67;4.37;;;22.90;99.90;;;;;;5090772;28;20556;-75
2021/06/19 00:14:15;;;;;;;7.00;4.43;;;22.90;99.90;;;;;;5091011;28;20469;-74
2021/06/19 00:16:42;;;;;;;7.87;5.20;;;22.90;99.90;;;;;;5091367;28;20876;-74
2021/06/19 00:19:08;;;;;;;6.33;4.47;;;22.90;99.90;;;;;;5091303;28;20460;-74
2021/06/19 00:21:35;;;;;;;11.93;4.87;;;22.80;99.90;;;;;;5090709;28;20481;-72
2021/06/19 05:36:10;;;;;;;9.13;7.40;;;20.90;99.90;;;;;;6010373;23;20535;-67
2021/06/19 05:38:36;;;;;;;8.97;8.03;;;21.00;99.90;;;;;;4992139;23;20916;-68
2021/06/19 05:41:03;;;;;;;8.13;7.20;;;21.10;99.90;;;;;;4931981;29;20829;-67
2021/06/19 05:43:30;;;;;;;13.27;7.97;;;21.20;99.90;;;;;;4935170;29;20856;-67
2021/06/19 05:45:56;;;;;;;10.30;7.90;;;21.20;99.90;;;;;;5030779;23;20511;-67
2021/06/19 05:48:23;;;;;;;11.93;7.77;;;21.30;99.90;;;;;;4954248;29;20468;-67
2021/06/19 05:50:50;;;;;;;12.37;8.53;;;21.40;99.90;;;;;;4953490;29;20533;-67
2021/06/19 05:53:18;;;;;;;8.63;7.70;;;21.60;99.90;;;;;;4954231;29;20951;-67
2021/06/19 05:55:50;;;;;;;10.07;7.60;;;21.60;99.90;;;;;;4953827;29;20470;-67
2021/06/19 05:58:16;;;;;;;10.30;7.93;;;21.70;99.90;;;;;;4953679;28;20515;-67
2021/06/19 06:00:43;;;;;;;8.93;7.93;;;21.80;99.90;;;;;;4953727;29;20476;-67
2021/06/19 06:03:10;;;;;;;15.17;7.93;;;21.90;99.90;;;;;;4953831;29;20496;-67
2021/06/19 06:05:36;;;;;;;9.00;8.10;;;21.90;99.90;;;;;;4954057;29;20951;-67
2021/06/19 06:08:04;;;;;;;10.00;8.40;;;21.90;99.90;;;;;;4953938;28;20814;-67
2021/06/19 06:10:32;;;;;;;10.57;8.67;;;21.90;99.90;;;;;;4953521;29;20472;-68
2021/06/19 06:12:59;;;;;;;8.00;7.20;;;21.90;99.90;;;;;;4953856;29;20464;-67
2021/06/19 06:15:25;;;;;;;9.17;8.17;;;22.00;99.90;;;;;;4953306;29;20467;-67
2021/06/19 06:17:52;;;;;;;10.10;8.47;;;22.10;99.90;;;;;;4953618;28;20897;-67
2021/06/19 06:20:19;;;;;;;10.70;8.40;;;22.10;99.90;;;;;;4953590;29;20464;-68
2021/06/19 06:22:46;;;;;;;8.93;8.07;;;22.20;99.90;;;;;;4954013;29;20495;-68
2021/06/19 06:25:13;;;;;;;9.90;7.80;;;22.30;99.90;;;;;;4953613;29;20468;-68
2021/06/19 06:27:42;;;;;;;7.93;6.97;;;22.30;99.90;;;;;;4953736;28;20488;-68
2021/06/19 06:30:10;;;;;;;7.43;6.73;;;22.40;99.90;;;;;;4953270;29;20468;-68
2021/06/19 06:32:37;;;;;;;10.50;6.60;;;22.40;99.90;;;;;;4953345;28;20546;-68
2021/06/19 06:35:04;;;;;;;12.17;7.80;;;22.50;99.90;;;;;;4953551;29;20468;-67
2021/06/19 06:37:31;;;;;;;7.63;6.80;;;22.50;99.90;;;;;;4953470;28;20487;-68
2021/06/19 06:39:58;;;;;;;9.27;6.60;;;22.60;99.90;;;;;;4953255;29;20476;-68
2021/06/19 06:42:25;;;;;;;8.60;6.90;;;22.60;99.90;;;;;;4953364;29;20488;-68
2021/06/19 06:44:53;;;;;;;9.70;6.97;;;22.80;99.90;;;;;;4953560;29;20853;-68
2021/06/19 06:47:19;;;;;;;8.30;7.40;;;22.90;99.90;;;;;;4953074;28;20485;-67
2021/06/19 06:49:46;;;;;;;8.38;7.20;;;22.90;99.90;;;;;;4951677;29;20471;-67
2021/06/19 06:52:13;;;;;;;9.60;6.00;;;23.00;99.90;;;;;;4949201;29;20195;-67
2021/06/19 06:54:39;;;;;;;5.63;5.13;;;23.00;99.90;;;;;;4952681;29;20834;-66
2021/06/19 06:57:07;;;;;;;8.70;6.50;;;23.10;99.90;;;;;;4952710;29;20480;-66
2021/06/19 06:59:34;;;;;;;8.50;6.63;;;23.20;99.90;;;;;;4950342;29;20468;-67
2021/06/19 07:02:02;;;;;;;8.07;6.63;;;23.20;99.90;;;;;;4952688;29;20846;-66
2021/06/19 07:04:29;;;;;;;7.97;6.40;;;23.30;99.90;;;;;;4952440;29;20839;-67
2021/06/19 07:06:55;;;;;;;6.77;6.07;;;23.40;99.90;;;;;;4949746;29;20486;-67
2021/06/19 07:09:22;;;;;;;7.83;5.57;;;23.40;99.90;;;;;;4952461;29;20456;-67
2021/06/19 07:11:49;;;;;;;6.33;5.70;;;23.40;99.90;;;;;;4950954;29;20956;-67
2021/06/19 07:14:15;;;;;;;9.90;5.90;;;23.40;99.90;;;;;;4952659;29;20494;-67
2021/06/19 07:16:42;;;;;;;6.20;5.60;;;23.50;99.90;;;;;;4952919;28;20484;-67
2021/06/19 07:19:10;;;;;;;6.90;6.20;;;23.50;99.90;;;;;;4952651;29;20471;-67
2021/06/19 07:21:37;;;;;;;8.13;6.07;;;23.60;99.90;;;;;;4952556;29;20456;-67
2021/06/19 07:24:04;;;;;;;7.80;5.37;;;23.60;99.90;;;;;;4952213;29;20879;-67
2021/06/19 07:26:31;;;;;;;7.03;6.10;;;23.70;99.90;;;;;;4950239;28;20480;-67
2021/06/19 07:28:58;;;;;;;9.53;6.47;;;23.80;99.90;;;;;;4951514;29;20576;-68
2021/06/19 07:31:25;;;;;;;6.10;5.60;;;23.80;99.90;;;;;;4950950;29;20969;-67
2021/06/19 07:33:52;;;;;;;7.30;6.00;;;23.90;99.90;;;;;;4948844;29;20471;-67
2021/06/19 07:36:20;;;;;;;8.63;5.90;;;23.90;99.90;;;;;;4948767;28;20491;-68
2021/06/19 07:38:47;;;;;;;7.10;6.50;;;24.00;99.90;;;;;;4948964;29;20469;-67
2021/06/19 07:41:13;;;;;;;9.60;6.60;;;24.10;99.90;;;;;;4948289;29;20468;-68
2021/06/19 07:43:41;;;;;;;8.73;6.33;;;24.20;99.90;;;;;;4948929;29;20492;-67
2021/06/19 07:46:07;;;;;;;8.43;6.50;;;24.30;99.90;;;;;;4947420;28;20464;-67
2021/06/19 07:48:34;;;;;;;10.40;7.33;;;24.40;99.90;;;;;;4947647;29;20464;-67
2021/06/19 07:51:01;;;;;;;9.17;7.80;;;24.40;99.90;;;;;;4948047;29;20462;-67
2021/06/19 07:53:30;;;;;;;9.40;7.23;;;24.50;99.90;;;;;;4948935;29;20462;-67
2021/06/19 07:55:57;;;;;;;8.60;7.70;;;24.60;99.90;;;;;;4948714;28;20567;-67
2021/06/19 07:58:24;;;;;;;12.40;7.10;;;24.60;99.90;;;;;;4946185;29;21198;-67
2021/06/19 08:00:54;;;;;;;9.17;6.67;;;24.70;99.90;;;;;;4947674;28;20819;-67
2021/06/19 08:03:28;;;;;;;7.70;7.00;;;24.80;99.90;;;;;;4948057;28;20566;-66
2021/06/19 08:05:56;;;;;;;9.00;6.20;;;24.80;99.90;;;;;;4948663;28;21149;-66
2021/06/19 08:08:23;;;;;;;7.43;5.87;;;24.90;99.90;;;;;;4948654;28;20456;-66
2021/06/19 08:10:53;;;;;;;8.77;6.50;;;24.90;99.90;;;;;;4948653;29;20975;-66
2021/06/19 08:13:20;;;;;;;6.30;5.70;;;25.00;99.90;;;;;;4948623;29;20456;-65
2021/06/19 08:15:48;;;;;;;7.23;6.53;;;25.10;99.90;;;;;;4948429;28;20547;-66
2021/06/19 08:18:15;;;;;;;7.70;6.63;;;25.20;99.90;;;;;;4948569;28;20893;-66
2021/06/19 08:20:42;;;;;;;10.77;6.20;;;25.30;99.90;;;;;;4948143;29;20460;-66
2021/06/19 08:23:09;;;;;;;7.07;6.37;;;25.30;99.90;;;;;;4949150;29;20480;-66
2021/06/19 08:25:36;;;;;;;9.63;6.67;;;25.40;99.90;;;;;;4949379;29;20468;-67
2021/06/19 08:28:05;;;;;;;7.20;6.50;;;25.40;99.90;;;;;;4948979;29;20492;-66
2021/06/19 08:30:32;;;;;;;7.53;6.20;;;25.40;99.90;;;;;;4949060;29;20518;-66
2021/06/19 08:32:59;;;;;;;8.40;6.93;;;25.50;99.90;;;;;;4949366;29;20468;-64
2021/06/19 08:35:27;;;;;;;10.50;6.60;;;25.50;99.90;;;;;;4949168;29;20475;-66
2021/06/19 08:37:54;;;;;;;8.70;6.97;;;25.70;99.90;;;;;;4949180;28;20555;-66
2021/06/19 08:40:20;;;;;;;7.33;6.63;;;25.80;99.90;;;;;;4948435;28;20468;-66
2021/06/19 08:42:47;;;;;;;7.90;7.10;;;25.90;99.90;;;;;;4948393;29;20480;-66
2021/06/19 08:45:16;;;;;;;7.90;6.97;;;26.00;99.90;;;;;;4944396;29;20501;-67
2021/06/19 08:47:46;;;;;;;7.70;6.90;;;26.00;99.90;;;;;;4945073;28;20487;-67
2021/06/19 08:50:16;;;;;;;7.40;6.73;;;26.10;99.90;;;;;;4947323;29;20971;-67
2021/06/19 08:52:45;;;;;;;8.40;7.03;;;26.20;99.90;;;;;;4948224;29;20463;-66
2021/06/19 08:55:15;;;;;;;8.00;6.80;;;26.30;99.90;;;;;;4948599;29;20536;-67
2021/06/19 08:57:42;;;;;;;9.87;7.23;;;26.40;99.90;;;;;;4947664;28;21368;-66
2021/06/19 09:00:12;;;;;;;11.07;7.60;;;26.40;99.90;;;;;;4947804;29;20813;-66
2021/06/19 09:02:40;;;;;;;10.73;7.53;;;26.50;99.90;;;;;;4947779;28;20467;-66
2021/06/19 09:05:10;;;;;;;10.00;7.43;;;26.60;99.90;;;;;;4947462;29;20464;-66
2021/06/19 09:07:45;;;;;;;8.43;7.23;;;26.60;99.90;;;;;;4946528;28;21056;-66
2021/06/19 09:10:22;;;;;;;10.53;7.60;;;26.70;99.90;;;;;;4946681;29;20474;-65
2021/06/19 09:13:11;;;;;;;7.50;6.80;;;26.80;99.90;;;;;;4948429;29;20876;-65
2021/06/19 09:15:43;;;;;;;9.07;7.63;;;26.80;99.90;;;;;;4942510;29;20840;-66
2021/06/19 09:18:18;;;;;;;11.83;7.80;;;26.90;99.90;;;;;;4947887;28;20508;-66
2021/06/19 09:20:50;;;;;;;7.80;6.90;;;27.00;99.90;;;;;;4947841;29;20467;-66
2021/06/19 09:23:18;;;;;;;12.23;6.80;;;27.10;99.90;;;;;;4947506;29;20580;-65
2021/06/19 09:25:45;;;;;;;7.53;6.80;;;27.10;99.90;;;;;;4948387;29;20873;-65
2021/06/19 09:28:12;;;;;;;9.40;7.27;;;27.10;99.90;;;;;;4948048;28;21012;-64
2021/06/19 09:30:41;;;;;;;9.77;6.73;;;27.20;99.90;;;;;;4947823;29;20468;-66
2021/06/19 09:33:11;;;;;;;9.30;7.53;;;27.30;99.90;;;;;;4948329;29;20475;-67
2021/06/19 09:35:41;;;;;;;9.40;7.83;;;27.40;99.90;;;;;;4948275;29;20472;-66
2021/06/19 09:38:09;;;;;;;13.70;7.50;;;27.50;99.90;;;;;;4948016;28;20489;-67
2021/06/19 09:40:38;;;;;;;8.83;7.70;;;27.60;99.90;;;;;;4947899;29;20472;-65
2021/06/19 09:43:12;;;;;;;10.80;7.27;;;27.70;99.90;;;;;;4947942;28;20488;-67
2021/06/19 09:45:40;;;;;;;11.30;7.63;;;27.70;99.90;;;;;;4948244;29;20473;-66
2021/06/19 09:48:23;;;;;;;10.90;7.83;;;27.80;99.90;;;;;;4948018;28;20493;-66
2021/06/19 09:51:16;;;;;;;10.20;7.77;;;27.80;99.90;;;;;;4948089;29;20469;-67
2021/06/19 09:53:46;;;;;;;8.13;6.80;;;27.90;99.90;;;;;;4948389;28;20478;-66
2021/06/19 09:56:14;;;;;;;11.20;6.77;;;28.00;99.90;;;;;;4947834;28;20466;-65
2021/06/19 09:58:43;;;;;;;9.63;7.40;;;28.10;99.90;;;;;;4948068;29;20968;-66
2021/06/19 10:01:11;;;;;;;7.17;6.23;;;28.20;99.90;;;;;;4946516;28;21007;-65
2021/06/19 10:03:59;;;;;;;7.80;6.60;;;28.20;99.90;;;;;;4947816;29;20499;-66
2021/06/19 10:06:29;;;;;;;12.03;8.00;;;28.30;99.90;;;;;;4942421;29;20558;-67
2021/06/19 10:08:58;;;;;;;11.47;7.67;;;28.30;99.90;;;;;;4947039;29;20832;-67
2021/06/19 10:11:27;;;;;;;7.83;7.23;;;28.40;99.90;;;;;;4946582;29;20463;-66
2021/06/19 10:13:55;;;;;;;8.17;7.07;;;28.40;99.90;;;;;;4946915;28;20486;-67
2021/06/19 10:16:24;;;;;;;8.43;7.33;;;28.50;99.90;;;;;;4946649;28;20481;-67
2021/06/19 10:18:52;;;;;;;8.93;6.60;;;28.60;99.90;;;;;;4943723;29;20478;-68
2021/06/19 10:21:19;;;;;;;8.77;6.90;;;28.60;99.90;;;;;;4946699;29;20816;-67
2021/06/19 10:23:48;;;;;;;8.10;6.97;;;28.70;99.90;;;;;;4946380;28;20502;-67
2021/06/19 10:26:15;;;;;;;6.97;6.13;;;28.80;99.90;;;;;;4947192;28;22587;-67
2021/06/19 10:28:46;;;;;;;6.60;6.00;;;28.80;99.90;;;;;;4950180;29;21119;-67
2021/06/19 10:31:14;;;;;;;6.70;6.10;;;28.90;99.90;;;;;;4950252;29;20465;-68
2021/06/19 10:33:41;;;;;;;13.70;6.47;;;29.00;99.90;;;;;;4951180;29;20466;-67
2021/06/19 10:36:10;;;;;;;11.63;6.17;;;28.90;99.90;;;;;;4950517;28;20499;-67
2021/06/19 10:38:49;;;;;;;9.60;6.60;;;28.90;99.90;;;;;;4950930;28;20479;-67
2021/06/19 10:41:17;;;;;;;9.30;6.60;;;29.00;99.90;;;;;;4950211;28;20554;-67
2021/06/19 10:43:44;;;;;;;7.77;6.10;;;29.00;99.90;;;;;;4951009;29;20501;-67
2021/06/19 10:46:29;;;;;;;6.57;5.87;;;29.10;99.90;;;;;;4950216;28;20473;-67
2021/06/19 10:48:55;;;;;;;8.53;5.70;;;29.10;99.90;;;;;;4950560;28;20474;-67
2021/06/19 10:51:25;;;;;;;8.90;6.13;;;29.20;99.90;;;;;;4950766;29;20467;-68
2021/06/19 10:54:14;;;;;;;8.90;6.83;;;29.20;99.90;;;;;;4950216;29;20471;-67
2021/06/19 10:56:51;;;;;;;11.23;7.87;;;29.30;99.90;;;;;;4950462;28;20532;-67
2021/06/19 10:59:19;;;;;;;13.70;7.70;;;29.30;99.90;;;;;;4949932;29;20528;-66
2021/06/19 11:01:46;;;;;;;10.17;6.20;;;29.30;99.90;;;;;;4950363;29;20474;-68
2021/06/19 11:04:42;;;;;;;9.60;6.80;;;29.30;99.90;;;;;;4950037;29;20488;-68
2021/06/19 11:07:10;;;;;;;11.83;7.37;;;29.30;99.90;;;;;;4950169;28;20845;-67
2021/06/19 11:09:40;;;;;;;8.30;6.00;;;29.30;99.90;;;;;;4946201;29;20468;-67
2021/06/19 11:12:09;;;;;;;7.77;6.03;;;29.40;99.90;;;;;;4949534;29;20466;-68
2021/06/19 11:15:10;;;;;;;7.93;5.50;;;29.50;99.90;;;;;;4950205;28;20469;-67
2021/06/19 11:17:46;;;;;;;11.00;5.93;;;29.40;99.90;;;;;;4949295;29;20508;-66
2021/06/19 11:20:24;;;;;;;8.63;5.93;;;29.50;99.90;;;;;;4949092;29;20472;-68
2021/06/19 11:22:58;;;;;;;8.63;4.93;;;29.60;99.90;;;;;;4949292;29;20473;-67
2021/06/19 11:25:38;;;;;;;8.30;4.67;;;29.60;99.90;;;;;;4949149;29;20585;-67
2021/06/19 11:28:07;;;;;;;9.00;5.23;;;29.70;99.90;;;;;;4949523;29;20528;-67
2021/06/19 11:30:54;;;;;;;7.20;5.80;;;29.70;99.90;;;;;;4948940;29;20531;-67
2021/06/19 11:33:54;;;;;;;7.67;5.47;;;29.70;99.90;;;;;;4949625;29;20519;-68
2021/06/19 11:36:39;;;;;;;14.20;6.57;;;29.80;99.90;;;;;;4948930;28;20478;-68
2021/06/19 11:39:11;;;;;;;9.50;5.40;;;29.90;99.90;;;;;;4949346;29;20460;-67
2021/06/19 11:41:48;;;;;;;12.67;4.97;;;30.00;99.90;;;;;;4947547;29;20478;-68
2021/06/19 11:44:31;;;;;;;7.80;5.30;;;30.00;99.90;;;;;;4946338;28;20483;-68
2021/06/19 11:46:57;;;;;;;9.00;4.90;;;30.00;99.90;;;;;;4946498;29;20494;-68
2021/06/19 11:49:35;;;;;;;8.40;5.20;;;30.10;99.90;;;;;;4946371;29;20468;-67
2021/06/19 11:52:04;;;;;;;7.40;5.17;;;30.20;99.90;;;;;;4946631;29;20461;-68
2021/06/19 11:54:40;;;;;;;8.87;5.30;;;30.30;99.90;;;;;;4946238;29;20477;-68
2021/06/19 11:57:09;;;;;;;7.47;4.90;;;30.40;99.90;;;;;;4946199;29;20489;-68
2021/06/19 11:59:36;;;;;;;9.23;4.43;;;30.50;99.90;;;;;;4945938;29;20476;-68
2021/06/19 12:02:03;;;;;;;11.20;4.60;;;30.50;99.90;;;;;;4946328;29;20469;-68
2021/06/19 12:04:32;;;;;;;7.50;4.13;;;30.60;98.30;;;;;;4946578;29;20498;-66
2021/06/19 12:07:01;;;;;;;11.43;4.80;;;30.60;99.70;;;;;;4946331;29;20477;-67
2021/06/19 12:09:31;;;;;;;11.77;4.70;;;30.70;99.90;;;;;;4946065;29;20492;-67
2021/06/19 12:11:59;;;;;;;11.53;5.33;;;30.80;99.90;;;;;;4946122;29;21093;-67
2021/06/19 12:14:29;;;;;;;6.80;4.87;;;30.80;99.90;;;;;;4946333;29;20459;-66
2021/06/19 12:16:58;;;;;;;10.37;5.20;;;30.80;97.90;;;;;;4946025;29;20489;-65
2021/06/19 12:19:27;;;;;;;8.43;4.53;;;30.80;99.10;;;;;;4945763;29;20477;-66
2021/06/19 12:21:57;;;;;;;9.00;4.77;;;30.80;98.30;;;;;;4945755;29;20990;-65
2021/06/19 12:24:27;;;;;;;10.10;4.70;;;30.80;96.00;;;;;;4945630;29;21028;-65
2021/06/19 12:27:10;;;;;;;7.20;4.70;;;30.90;97.70;;;;;;4938704;28;20469;-65
2021/06/19 12:29:41;;;;;;;8.90;4.93;;;30.90;96.90;;;;;;4946181;28;20517;-67
2021/06/19 12:32:23;;;;;;;9.70;4.57;;;31.00;96.90;;;;;;4945965;29;20954;-66
2021/06/19 12:34:50;;;;;;;8.90;5.30;;;31.00;96.50;;;;;;4945257;29;20464;-66
2021/06/19 12:37:22;;;;;;;11.23;5.33;;;31.00;95.60;;;;;;4945577;29;20486;-66
2021/06/19 12:39:49;;;;;;;11.10;4.87;;;31.10;97.30;;;;;;4944816;29;20526;-66
2021/06/19 12:42:34;;;;;;;12.60;5.33;;;31.10;97.40;;;;;;4945333;29;20941;-66
2021/06/19 12:45:11;;;;;;;6.30;4.60;;;31.20;98.70;;;;;;4944451;28;20491;-68
2021/06/19 12:47:43;;;;;;;9.00;5.27;;;31.30;98.90;;;;;;4944325;28;20499;-69
2021/06/19 12:50:11;;;;;;;12.03;5.17;;;31.30;99.30;;;;;;4943446;28;20570;-67
2021/06/19 12:52:59;;;;;;;7.50;4.67;;;31.30;98.70;;;;;;4944336;29;20468;-67
2021/06/19 12:55:28;;;;;;;7.17;5.13;;;31.30;99.00;;;;;;4944564;28;20459;-69
2021/06/19 12:58:09;;;;;;;8.30;5.30;;;31.30;97.60;;;;;;4943682;28;20483;-68
2021/06/19 13:00:40;;;;;;;8.77;6.03;;;31.30;98.00;;;;;;4945561;29;20487;-67
2021/06/19 13:03:07;;;;;;;12.60;5.80;;;31.30;98.60;;;;;;4945952;28;20553;-67
2021/06/19 13:05:34;;;;;;;8.60;5.63;;;31.40;98.90;;;;;;4944946;29;21016;-68
2021/06/19 13:08:11;;;;;;;10.67;5.60;;;31.50;99.40;;;;;;4946478;28;20497;-67
2021/06/19 13:10:37;;;;;;;10.30;5.90;;;31.60;99.60;;;;;;4945771;29;20469;-66
2021/06/19 13:13:04;;;;;;;10.80;5.07;;;31.60;99.40;;;;;;4944778;29;20473;-66
2021/06/19 13:15:31;;;;;;;11.10;5.47;;;31.60;97.90;;;;;;4947318;29;20470;-68
2021/06/19 13:17:59;;;;;;;13.80;6.90;;;31.60;99.40;;;;;;4947453;29;20489;-68
2021/06/19 13:20:28;;;;;;;8.33;4.90;;;31.70;98.50;;;;;;4947217;29;20470;-67
2021/06/19 13:23:10;;;;;;;11.67;6.30;;;31.70;99.00;;;;;;4947481;29;20482;-67
2021/06/19 13:26:08;;;;;;;6.40;5.67;;;31.70;98.30;;;;;;4948258;29;20505;-67
2021/06/19 13:28:40;;;;;;;9.90;4.97;;;31.80;98.70;;;;;;4926279;29;20879;-67
2021/06/19 13:31:08;;;;;;;8.67;4.97;;;31.90;98.30;;;;;;4943460;28;20463;-67
2021/06/19 13:33:41;;;;;;;11.10;5.60;;;31.90;98.90;;;;;;4948242;29;20499;-67
2021/06/19 13:36:20;;;;;;;8.83;6.27;;;31.90;98.60;;;;;;4947705;28;20461;-67
2021/06/19 13:38:55;;;;;;;8.27;5.77;;;31.90;99.80;;;;;;4946038;29;20462;-67
2021/06/19 13:41:24;;;;;;;7.63;5.50;;;32.00;98.80;;;;;;4947983;29;20461;-66
2021/06/19 13:43:51;;;;;;;9.73;6.13;;;31.90;99.10;;;;;;4948487;29;20470;-67
2021/06/19 13:46:18;;;;;;;7.20;4.93;;;31.90;98.30;;;;;;4948411;28;20874;-66
2021/06/19 13:48:46;;;;;;;11.67;6.20;;;31.90;98.30;;;;;;4947569;29;20854;-67
2021/06/19 13:51:14;;;;;;;11.40;5.90;;;31.70;97.80;;;;;;4948330;29;20470;-67
2021/06/19 13:53:45;;;;;;;9.80;5.87;;;31.80;98.10;;;;;;4948592;29;20541;-67
2021/06/19 13:56:12;;;;;;;10.37;5.50;;;31.90;99.50;;;;;;4947999;28;20986;-67
2021/06/19 13:58:39;;;;;;;12.40;5.73;;;31.90;99.60;;;;;;4948052;29;20476;-68
2021/06/19 14:01:07;;;;;;;10.43;6.10;;;31.90;99.80;;;;;;4950517;28;20466;-67
2021/06/19 14:03:33;;;;;;;8.33;6.20;;;32.00;98.70;;;;;;4951810;28;20466;-67
2021/06/19 14:06:03;;;;;;;9.37;5.80;;;32.00;98.90;;;;;;4951788;28;20876;-66
2021/06/19 14:08:30;;;;;;;8.20;5.40;;;32.00;96.80;;;;;;4951638;29;20972;-68
2021/06/19 14:10:57;;;;;;;6.90;5.77;;;32.00;97.70;;;;;;4951323;29;20506;-67
2021/06/19 14:13:24;;;;;;;8.67;5.90;;;32.10;98.80;;;;;;4952226;29;20468;-68
2021/06/19 14:15:50;;;;;;;11.83;5.90;;;32.20;99.20;;;;;;4951291;29;20823;-67
2021/06/19 14:18:17;;;;;;;10.17;6.30;;;32.20;96.60;;;;;;4951686;28;20491;-68
2021/06/19 14:20:44;;;;;;;8.23;5.77;;;32.20;97.70;;;;;;4951005;29;20544;-67
2021/06/19 14:23:12;;;;;;;9.60;6.30;;;32.20;98.30;;;;;;5009661;23;20536;-68
2021/06/19 14:25:39;;;;;;;7.70;5.67;;;32.20;98.10;;;;;;4930633;29;20488;-68
2021/06/19 14:28:07;;;;;;;11.03;5.83;;;32.20;98.10;;;;;;4923391;29;20495;-68
2021/06/19 14:30:34;;;;;;;7.70;5.70;;;32.20;96.90;;;;;;4931835;29;20461;-68
2021/06/19 14:33:01;;;;;;;9.57;5.50;;;32.10;97.60;;;;;;4932325;29;20467;-68
2021/06/19 14:35:28;;;;;;;13.23;6.70;;;32.10;97.10;;;;;;4930917;29;20785;-69
2021/06/19 14:37:55;;;;;;;11.70;5.97;;;32.00;97.00;;;;;;4931049;29;20488;-69
2021/06/19 14:40:23;;;;;;;10.60;6.53;;;32.00;97.90;;;;;;4931819;29;20476;-69
2021/06/19 14:42:50;;;;;;;6.47;5.43;;;32.00;98.00;;;;;;4932152;29;20474;-68
2021/06/19 14:45:17;;;;;;;14.93;5.73;;;32.00;97.60;;;;;;4931889;29;20499;-68
2021/06/19 14:47:43;;;;;;;10.23;5.30;;;32.00;98.50;;;;;;4932264;29;20492;-69
2021/06/19 14:50:11;;;;;;;9.07;6.27;;;32.00;97.70;;;;;;4931757;29;20468;-68
2021/06/19 14:52:39;;;;;;;8.53;6.50;;;32.00;98.20;;;;;;4932436;29;20475;-68
2021/06/19 14:55:07;;;;;;;7.77;5.93;;;31.90;98.60;;;;;;4927984;29;20467;-68
2021/06/19 14:57:36;;;;;;;7.60;6.20;;;31.80;99.00;;;;;;4909490;29;21142;-70
2021/06/19 15:00:04;;;;;;;7.50;6.00;;;31.70;99.90;;;;;;4911645;29;20544;-69
2021/06/19 15:02:33;;;;;;;12.87;6.47;;;31.70;99.60;;;;;;4912900;29;20477;-69
2021/06/19 15:05:00;;;;;;;12.70;6.17;;;31.60;99.90;;;;;;4912785;29;20493;-69
2021/06/19 15:07:27;;;;;;;9.20;5.57;;;31.60;99.00;;;;;;4911899;29;20480;-72
2021/06/19 15:09:54;;;;;;;7.93;6.07;;;31.50;97.80;;;;;;4910591;29;20471;-67
2021/06/19 15:12:20;;;;;;;8.00;6.07;;;31.40;98.90;;;;;;4910966;29;20478;-69
2021/06/19 15:14:49;;;;;;;11.40;5.90;;;31.40;99.50;;;;;;4912697;29;20475;-69
2021/06/19 15:17:16;;;;;;;9.33;5.90;;;31.40;98.30;;;;;;4912741;29;20488;-69
2021/06/19 15:19:42;;;;;;;7.13;5.80;;;31.50;98.50;;;;;;4912219;29;20482;-68
2021/06/19 15:22:09;;;;;;;10.47;6.23;;;31.50;98.50;;;;;;4912812;29;20477;-68
2021/06/19 15:24:39;;;;;;;8.07;5.77;;;31.50;97.80;;;;;;4913240;29;20474;-68
2021/06/19 15:27:07;;;;;;;12.63;6.90;;;31.60;99.00;;;;;;4914987;29;20914;-69
2021/06/19 15:29:34;;;;;;;11.73;6.60;;;31.60;97.80;;;;;;4925542;29;20465;-68
2021/06/19 15:32:02;;;;;;;10.37;7.57;;;31.60;98.70;;;;;;4931353;29;20472;-68
2021/06/19 15:34:29;;;;;;;10.70;7.27;;;31.70;98.90;;;;;;4913238;29;20477;-68
2021/06/19 15:36:56;;;;;;;8.77;7.13;;;31.70;98.20;;;;;;4910136;29;20488;-69
2021/06/19 15:39:23;;;;;;;8.00;7.20;;;31.70;98.40;;;;;;4909899;29;20480;-69
2021/06/19 15:41:49;;;;;;;8.23;6.00;;;31.70;99.30;;;;;;4912000;29;20460;-68
2021/06/19 15:44:16;;;;;;;10.57;6.80;;;31.70;99.20;;;;;;4911369;29;20477;-69
2021/06/19 15:46:43;;;;;;;10.33;7.40;;;31.60;98.30;;;;;;4904150;29;21012;-69
2021/06/19 15:49:12;;;;;;;8.57;6.00;;;31.50;97.50;;;;;;4918672;29;20481;-68
2021/06/19 15:51:39;;;;;;;9.03;6.70;;;31.40;97.70;;;;;;4913181;29;20478;-68
2021/06/19 15:54:08;;;;;;;8.27;6.10;;;31.40;97.30;;;;;;4908467;29;20472;-69
2021/06/19 15:56:35;;;;;;;11.60;6.27;;;31.40;98.40;;;;;;4906892;29;20489;-69
2021/06/19 15:59:02;;;;;;;8.20;5.93;;;31.40;97.90;;;;;;4912099;29;21040;-68
2021/06/19 16:01:29;;;;;;;7.97;7.17;;;31.30;98.10;;;;;;4912456;29;20486;-69
2021/06/19 16:03:56;;;;;;;11.47;6.50;;;31.30;98.80;;;;;;4912366;29;20472;-68
2021/06/19 16:06:25;;;;;;;9.63;6.77;;;31.30;98.60;;;;;;4912675;29;20546;-69
2021/06/19 16:08:55;;;;;;;9.30;6.70;;;31.20;97.00;;;;;;4912166;29;20467;-70
2021/06/19 16:11:22;;;;;;;8.47;6.37;;;31.20;98.80;;;;;;4911598;29;20480;-70
2021/06/19 16:13:49;;;;;;;10.33;5.83;;;31.20;97.90;;;;;;4912737;29;20493;-69
2021/06/19 16:16:15;;;;;;;10.50;6.90;;;31.10;97.70;;;;;;4912324;29;20475;-69
2021/06/19 16:18:43;;;;;;;10.03;6.57;;;31.00;98.60;;;;;;4912816;29;20564;-68
2021/06/19 16:21:10;;;;;;;10.57;6.40;;;31.00;99.00;;;;;;4912240;29;20992;-69
2021/06/19 16:23:39;;;;;;;9.80;6.63;;;30.90;98.80;;;;;;4911538;29;20479;-68
2021/06/19 16:26:08;;;;;;;9.37;6.20;;;30.90;98.80;;;;;;4906463;29;21036;-68
2021/06/19 16:28:36;;;;;;;6.90;5.80;;;30.90;98.10;;;;;;4913290;29;20464;-67
2021/06/19 16:31:06;;;;;;;8.27;6.93;;;30.80;97.70;;;;;;4913054;29;20558;-69
2021/06/19 16:33:33;;;;;;;11.00;6.77;;;30.80;98.70;;;;;;4913582;29;20575;-68
2021/06/19 16:36:01;;;;;;;13.13;6.27;;;30.80;98.40;;;;;;4912880;29;20568;-68
2021/06/19 16:38:28;;;;;;;8.30;6.77;;;30.80;98.70;;;;;;4912824;29;20463;-69
2021/06/19 16:40:56;;;;;;;11.30;6.90;;;30.70;97.90;;;;;;4912825;29;21030;-67
2021/06/19 16:43:27;;;;;;;9.63;6.00;;;30.70;97.00;;;;;;4912666;29;20519;-68
2021/06/19 16:45:54;;;;;;;10.73;7.17;;;30.60;97.30;;;;;;4912679;29;20501;-68
2021/06/19 16:48:22;;;;;;;9.00;6.97;;;30.60;97.60;;;;;;4912313;29;20561;-68
2021/06/19 16:50:49;;;;;;;8.63;6.37;;;30.60;97.90;;;;;;4912808;29;21022;-70
2021/06/19 16:53:17;;;;;;;7.10;6.40;;;30.60;98.70;;;;;;4912551;29;20487;-67
2021/06/19 16:55:44;;;;;;;10.20;7.50;;;30.50;97.60;;;;;;4909090;29;20505;-69
2021/06/19 16:58:15;;;;;;;11.07;6.67;;;30.50;98.20;;;;;;4911792;29;20490;-67
2021/06/19 17:00:45;;;;;;;15.60;7.17;;;30.50;98.00;;;;;;4912292;29;20844;-68
2021/06/19 17:03:12;;;;;;;8.07;6.80;;;30.40;97.80;;;;;;4912060;29;20567;-68
2021/06/19 17:05:38;;;;;;;11.50;6.43;;;30.30;98.70;;;;;;4909650;29;20583;-68
2021/06/19 17:08:06;;;;;;;10.13;6.23;;;30.10;98.20;;;;;;4910779;29;20568;-68
2021/06/19 17:10:35;;;;;;;7.13;6.43;;;30.10;98.70;;;;;;4911180;29;20489;-69
2021/06/19 17:13:02;;;;;;;11.70;6.90;;;30.10;98.60;;;;;;4911585;29;20855;-68
2021/06/19 17:15:30;;;;;;;8.70;6.37;;;30.10;98.90;;;;;;4911624;29;20466;-68
2021/06/19 17:17:56;;;;;;;7.33;6.60;;;30.00;97.80;;;;;;4911712;29;20493;-68
2021/06/19 17:20:23;;;;;;;9.17;6.50;;;30.00;97.50;;;;;;4910758;29;20475;-68
2021/06/19 17:22:52;;;;;;;7.90;6.03;;;29.90;97.60;;;;;;4911727;29;20517;-68
2021/06/19 17:25:20;;;;;;;8.03;6.10;;;29.90;98.00;;;;;;4909891;29;20474;-68
2021/06/19 17:27:47;;;;;;;7.37;6.60;;;29.90;97.80;;;;;;4908170;29;20477;-69
2021/06/19 17:30:16;;;;;;;6.50;5.90;;;29.80;97.30;;;;;;4911836;29;20470;-68
2021/06/19 17:32:44;;;;;;;7.10;6.40;;;29.80;97.20;;;;;;4912548;29;20479;-68
2021/06/19 17:35:12;;;;;;;6.70;6.03;;;29.80;97.60;;;;;;4913716;29;20497;-67
2021/06/19 17:37:38;;;;;;;9.57;6.50;;;29.70;97.70;;;;;;4916418;29;20500;-68
2021/06/19 17:40:07;;;;;;;7.43;6.70;;;29.60;98.70;;;;;;4915586;29;20473;-68
2021/06/19 17:42:34;;;;;;;8.30;7.00;;;29.50;98.00;;;;;;4916562;29;20470;-68
2021/06/19 17:45:00;;;;;;;8.00;6.80;;;29.50;98.20;;;;;;4915993;29;20677;-67
2021/06/19 17:47:27;;;;;;;8.80;7.10;;;29.50;99.00;;;;;;4915920;29;20522;-68
2021/06/19 17:49:55;;;;;;;7.93;6.10;;;29.40;98.20;;;;;;4915822;29;20475;-68
2021/06/19 17:52:24;;;;;;;8.73;6.47;;;29.40;98.90;;;;;;4915897;29;20474;-68
2021/06/19 17:54:53;;;;;;;11.80;7.00;;;29.30;98.30;;;;;;4915694;29;20472;-68
2021/06/19 17:57:23;;;;;;;8.07;6.30;;;29.30;98.60;;;;;;4914739;29;20483;-68
2021/06/19 17:59:50;;;;;;;9.93;7.63;;;29.20;98.40;;;;;;4930825;29;20542;-68
2021/06/19 18:02:18;;;;;;;8.90;8.00;;;29.20;98.30;;;;;;4934942;29;20464;-69
2021/06/19 18:04:45;;;;;;;10.33;7.53;;;29.20;98.60;;;;;;4934862;29;20464;-69
2021/06/19 18:07:13;;;;;;;11.63;8.37;;;29.20;98.80;;;;;;4934582;29;21006;-70